Terminal Aerodrome Forecast
Issued by NWS

Home | Current Version | Previous Version | Text Only | Print | Product List | Glossary On
Versions: 1 2 3 4 5 6 7 8 9 10 11 12 13 14 15 16 17 18 19
000
FTUS42 KFFC 200523
TAFRYY
TAF
KRYY 200523Z 2006/2106 17008KT 5SM -SHRA SCT010 BKN025 OVC040
      TEMPO 2006/2007 2SM +SHRA SCT008 BKN015 OVC030
     FM200900 21004KT 5SM BR BKN007 OVC015
     FM201400 23007KT P6SM SCT010 BKN025
     FM202000 23007KT P6SM SCT035
     FM210400 20005KT P6SM SCT007 OVC025
      AMD NOT SKED TIL 201200=

USA.gov is the U.S. government's official web portal to all federal, state and local government web resources and services.